M I D A S
Marine Information and Data Acquisition System
Tripno 2007 of the Zeeleeuw from 2010-09-23 07:11:26 to 2010-09-23 15:15:19
Back to CruiseResearch ActivitiesStationsMapUnderway DataData graphs

EquipmentUnitsComments
TimeDGPSUTC
LatitudeDGPSDM.mWGS84
LongitudeDGPSDM.mWGS84
SpeedMeteo Stationm/sRelative wind speed
DirectionMeteo StationdegRelative wind direction
TemperatureMeteo Stationdeg CelciusAir temperature
PressureMeteo StationPaAtmospheric pressure
HumidityMeteo Station%Relative humidity
Missing or incorrect values are displayed as -999
Metereological data collected by the RV Zeeleeuw from 2010-09-23 06:49:20 to 2010-09-23 15:23:59
Time Latitude Longitude Speed Direction Temperature Pressure Humidity
2010-09-23 06:50 51°13.665 2°55.961 0.1 31 14 101200 53
2010-09-23 06:51 51°13.664 2°55.961 -999 34 14 101200 53
2010-09-23 06:52 51°13.664 2°55.96 -999 41 13.9 101200 54
2010-09-23 06:53 51°13.663 2°55.961 -999 42 13.9 101190 54
2010-09-23 06:54 51°13.663 2°55.961 -999 35 13.9 101190 54
2010-09-23 06:55 51°13.662 2°55.961 -999 39 13.9 101190 54
2010-09-23 06:56 51°13.662 2°55.961 1.5 35 13.8 101180 53
2010-09-23 06:57 51°13.662 2°55.961 -999 35 13.8 101180 54
2010-09-23 06:58 51°13.663 2°55.961 -999 34 13.8 101170 54
2010-09-23 06:59 51°13.663 2°55.961 -999 33 13.8 101160 54
2010-09-23 07:00 51°13.663 2°55.961 -999 37 13.8 101170 54
2010-09-23 07:01 51°13.663 2°55.961 -999 39 13.8 101170 54
2010-09-23 07:02 51°13.663 2°55.961 -999 26 -999 -999 -999
2010-09-23 07:03 51°13.662 2°55.961 -999 20 13.8 101170 55
2010-09-23 07:04 51°13.662 2°55.96 -999 25 13.9 101160 54
2010-09-23 07:05 51°13.662 2°55.96 -999 13 13.9 101160 54
2010-09-23 07:06 51°13.662 2°55.96 -999 2 13.9 101160 54
2010-09-23 07:07 51°13.662 2°55.961 -999 17 13.9 101160 53
2010-09-23 07:08 51°13.663 2°55.96 0.2 5 13.9 101160 54
2010-09-23 07:09 51°13.663 2°55.96 -999 352 13.8 101160 54
2010-09-23 07:10 51°13.662 2°55.96 0.1 348 13.9 101160 54
2010-09-23 07:11 51°13.663 2°55.961 -999 354 13.9 101160 54
2010-09-23 07:12 51°13.662 2°55.961 -999 1 13.9 101160 54
2010-09-23 07:13 51°13.662 2°55.961 0.1 4 13.9 101150 54
2010-09-23 07:14 51°13.662 2°55.961 -999 25 13.9 101150 54
2010-09-23 07:15 51°13.661 2°55.961 -999 30 13.9 101150 53
2010-09-23 07:16 51°13.662 2°55.956 0.1 22 14 101150 53
2010-09-23 07:17 51°13.679 2°55.896 0.7 31 13.9 101150 53
2010-09-23 07:18 51°13.693 2°55.804 3.2 37 14 101150 55
2010-09-23 07:19 51°13.7 2°55.762 0.4 33 14 101150 53
2010-09-23 07:20 51°13.691 2°55.747 1.1 33 14 101150 53
2010-09-23 07:21 51°13.728 2°55.716 -999 330 14 101150 53
2010-09-23 07:22 51°13.841 2°55.623 1.8 332 14.1 101150 55
2010-09-23 07:23 51°13.981 2°55.522 2.5 34 14.1 101150 51
2010-09-23 07:24 51°14.128 2°55.412 2.7 325 14.1 101150 52
2010-09-23 07:25 51°14.28 2°55.281 3.6 34 14.1 101150 54
2010-09-23 07:26 51°14.44 2°55.114 5.7 316 14.1 101140 52
2010-09-23 07:27 51°14.613 2°54.907 5.2 32 14.2 101130 52
2010-09-23 07:28 51°14.797 2°54.704 4.2 233 14.2 101130 52
2010-09-23 07:29 51°14.968 2°54.495 3.7 316 14.2 101120 51
2010-09-23 07:30 51°15.144 2°54.28 4.1 34 14.3 101120 52
2010-09-23 07:31 51°15.319 2°54.068 3.6 316 14.3 101110 51
2010-09-23 07:32 51°15.493 2°53.853 3.8 35 14.3 101100 52
2010-09-23 07:33 51°15.67 2°53.638 4.3 316 14.4 101100 53
2010-09-23 07:34 51°15.849 2°53.429 3.8 318 14.4 101100 54
2010-09-23 07:35 51°16.033 2°53.237 3.1 315 14.4 101100 54
2010-09-23 07:36 51°16.215 2°53.043 2.8 315 14.4 101100 52
2010-09-23 07:37 51°16.403 2°52.866 3.3 316 14.5 101100 52
2010-09-23 07:38 51°16.587 2°52.701 2.9 34 14.5 101110 54
2010-09-23 07:39 51°16.787 2°52.582 1.8 321 14.5 101110 53
2010-09-23 07:40 51°16.984 2°52.481 0.3 317 14.6 101110 53
2010-09-23 07:41 51°17.182 2°52.376 0.7 318 14.6 101110 52
2010-09-23 07:42 51°17.381 2°52.268 0.1 315 14.6 101110 53
2010-09-23 07:43 51°17.58 2°52.161 0.1 40 14.7 101110 53
2010-09-23 07:44 51°17.777 2°52.053 0.1 30 14.7 101110 53
2010-09-23 07:45 51°17.972 2°51.936 0.2 315 14.7 101110 53
2010-09-23 07:46 51°18.171 2°51.814 0.6 237 14.7 101110 51
2010-09-23 07:47 51°18.37 2°51.685 1.9 321 14.7 101100 51
2010-09-23 07:48 51°18.57 2°51.554 0.1 318 14.7 101100 53
2010-09-23 07:49 51°18.77 2°51.42 0.1 35 14.7 101100 53
2010-09-23 07:50 51°18.968 2°51.282 0.1 318 14.7 101090 53
2010-09-23 07:51 51°19.167 2°51.145 0.1 320 14.8 101080 53
2010-09-23 07:52 51°19.365 2°51.007 0.1 317 14.8 101080 53
2010-09-23 07:53 51°19.564 2°50.871 0.1 40 14.8 101080 53
2010-09-23 07:54 51°19.763 2°50.74 0.1 322 14.9 101080 53
2010-09-23 07:55 51°19.953 2°50.615 -999 326 14.9 101070 52
2010-09-23 07:56 51°20.136 2°50.512 -999 355 14.9 101070 53
2010-09-23 07:57 51°20.325 2°50.441 -999 357 14.9 101070 53
2010-09-23 07:58 51°20.519 2°50.384 -999 19 15 101070 53
2010-09-23 07:59 51°20.716 2°50.353 0.1 16 15.1 101070 53
2010-09-23 08:00 51°20.912 2°50.362 2.5 8 15.1 101070 55
2010-09-23 08:01 51°21.102 2°50.414 3.1 12 15.2 101070 54
2010-09-23 08:02 51°21.289 2°50.482 3.3 14 15.2 101070 55
2010-09-23 08:03 51°21.477 2°50.546 2.9 8 15.3 101070 51
2010-09-23 08:04 51°21.669 2°50.6 2.4 11 15.3 101070 51
2010-09-23 08:05 51°21.862 2°50.605 -999 10 15.4 101070 53
2010-09-23 08:06 51°22.058 2°50.511 -999 355 15.4 101060 53
2010-09-23 08:07 51°22.229 2°50.327 2.4 259 15.4 101060 52
2010-09-23 08:08 51°22.391 2°50.111 0.2 258 15.4 101060 54
2010-09-23 08:09 51°22.562 2°49.927 1.6 41 15.5 101060 53
2010-09-23 08:10 51°22.727 2°49.755 1.7 32 15.5 101050 53
2010-09-23 08:11 51°22.89 2°49.588 1.3 32 15.5 101050 51
2010-09-23 08:12 51°23.052 2°49.418 0.8 32 15.6 101040 53
2010-09-23 08:13 51°23.216 2°49.24 1.5 38 15.6 101040 53
2010-09-23 08:14 51°23.382 2°49.061 0.2 40 15.6 101030 52
2010-09-23 08:15 51°23.549 2°48.881 1.7 39 15.7 101030 54
2010-09-23 08:16 51°23.716 2°48.7 1.7 14 15.7 101030 53
2010-09-23 08:17 51°23.884 2°48.519 2.5 35 15.8 101030 53
2010-09-23 08:18 51°24.052 2°48.338 3 40 15.8 101040 54
2010-09-23 08:19 51°24.223 2°48.158 3.5 34 15.9 101030 51
2010-09-23 08:20 51°24.395 2°47.979 1.9 269 15.9 101030 54
2010-09-23 08:21 51°24.566 2°47.798 3.1 34 15.9 101020 53
2010-09-23 08:22 51°24.737 2°47.617 1.9 38 16 101020 55
2010-09-23 08:23 51°24.908 2°47.433 3.7 32 16 101020 52
2010-09-23 08:24 51°25.08 2°47.248 3.8 33 16 101020 52
2010-09-23 08:25 51°25.25 2°47.069 3.4 38 16.1 101010 52
2010-09-23 08:26 51°25.42 2°46.894 3.2 40 16.1 101010 53
2010-09-23 08:27 51°25.59 2°46.719 3.1 39 16.1 101000 51
2010-09-23 08:28 51°25.76 2°46.551 3.4 37 16.1 101010 53
2010-09-23 08:29 51°25.936 2°46.407 3.6 36 16.1 101000 52
2010-09-23 08:30 51°26.113 2°46.261 3.1 34 16.1 101000 52
2010-09-23 08:31 51°26.29 2°46.115 4.1 31 16.1 101000 53
2010-09-23 08:32 51°26.464 2°45.968 2.9 32 16.1 101000 54
2010-09-23 08:33 51°26.643 2°45.813 4.3 33 16.2 101000 52
2010-09-23 08:34 51°26.819 2°45.658 3.4 40 16.2 101000 52
2010-09-23 08:35 51°26.997 2°45.499 4.7 31 16.3 100990 54
2010-09-23 08:36 51°27.173 2°45.341 6.5 34 16.3 101000 53
2010-09-23 08:37 51°27.351 2°45.183 3.5 39 16.3 101000 52
2010-09-23 08:38 51°27.529 2°45.026 2.9 33 16.3 100990 52
2010-09-23 08:39 51°27.709 2°44.871 5.6 38 16.4 100990 54
2010-09-23 08:40 51°27.891 2°44.723 3.8 37 16.4 100990 52
2010-09-23 08:41 51°28.067 2°44.576 2 32 16.3 100990 55
2010-09-23 08:42 51°28.252 2°44.433 3.5 39 16.2 100990 53
2010-09-23 08:43 51°28.431 2°44.3 2.9 34 16.1 100990 52
2010-09-23 08:44 51°28.615 2°44.161 4.4 33 16.1 100990 53
2010-09-23 08:45 51°28.797 2°44.028 3.3 32 16 100990 54
2010-09-23 08:46 51°28.974 2°43.896 0.7 38 16 100970 54
2010-09-23 08:47 51°29.156 2°43.757 2.9 40 16.1 100960 54
2010-09-23 08:48 51°29.33 2°43.619 2.9 32 16.1 100960 56
2010-09-23 08:49 51°29.509 2°43.47 3.4 34 16.1 100960 53
2010-09-23 08:50 51°29.687 2°43.372 5.6 45 16.3 100960 55
2010-09-23 08:51 51°29.874 2°43.384 4.1 37 16.3 100950 54
2010-09-23 08:52 51°30.056 2°43.434 7.6 38 16.3 100950 55
2010-09-23 08:53 51°30.234 2°43.518 6 33 16.3 100960 53
2010-09-23 08:54 51°30.41 2°43.599 5.3 34 16.3 100950 56
2010-09-23 08:55 51°30.581 2°43.679 6.4 32 16.3 100950 55
2010-09-23 08:56 51°30.755 2°43.776 6.3 29 16.3 100950 55
2010-09-23 08:57 51°30.923 2°43.884 7.1 31 16.3 100940 54
2010-09-23 08:58 51°31.109 2°43.997 5.8 25 16.3 100950 55
2010-09-23 08:59 51°31.29 2°44.109 5.2 27 16.3 100940 52
2010-09-23 09:00 51°31.48 2°44.223 5.7 25 16.3 100940 55
2010-09-23 09:01 51°31.666 2°44.335 6 28 16.4 100950 53
2010-09-23 09:02 51°31.851 2°44.448 4 31 16.4 100950 53
2010-09-23 09:03 51°32.037 2°44.557 4 29 16.4 100950 54
2010-09-23 09:04 51°32.222 2°44.666 6.2 27 16.5 100940 53
2010-09-23 09:05 51°32.407 2°44.774 5.6 27 16.5 100940 52
2010-09-23 09:06 51°32.592 2°44.886 5.4 27 16.6 100940 53
2010-09-23 09:07 51°32.778 2°45.001 5.7 29 16.6 100930 51
2010-09-23 09:08 51°32.964 2°45.118 6.7 28 16.7 100940 52
2010-09-23 09:09 51°33.152 2°45.232 6.7 35 16.6 100930 54
2010-09-23 09:10 51°33.351 2°45.269 3.7 35 16.7 100940 52
2010-09-23 09:11 51°33.555 2°45.277 4.3 34 16.7 100940 52
2010-09-23 09:12 51°33.755 2°45.286 3.8 39 16.7 100940 54
2010-09-23 09:13 51°33.961 2°45.303 5.2 42 16.7 100940 53
2010-09-23 09:14 51°34.164 2°45.321 5.1 33 16.7 100940 54
2010-09-23 09:15 51°34.361 2°45.338 5 42 16.7 100950 51
2010-09-23 09:16 51°34.558 2°45.405 5 27 16.7 100950 53
2010-09-23 09:17 51°34.746 2°45.488 5.4 34 16.7 100940 52
2010-09-23 09:18 51°34.942 2°45.577 4.6 33 16.7 100950 52
2010-09-23 09:19 51°35.134 2°45.675 4.8 28 16.7 100940 54
2010-09-23 09:20 51°35.321 2°45.789 6 27 16.7 100930 54
2010-09-23 09:21 51°35.511 2°45.894 5.8 30 16.7 100930 53
2010-09-23 09:22 51°35.703 2°45.997 5.7 29 16.7 100930 54
2010-09-23 09:23 51°35.893 2°46.108 6.3 34 16.7 100940 53
2010-09-23 09:24 51°36.08 2°46.226 5.9 29 16.7 100940 52
2010-09-23 09:25 51°36.268 2°46.348 4.5 31 16.7 100940 52
2010-09-23 09:26 51°36.459 2°46.459 5.2 30 16.7 100930 52
2010-09-23 09:27 51°36.649 2°46.579 5.1 31 16.7 100930 52
2010-09-23 09:28 51°36.837 2°46.693 4 29 16.7 100930 53
2010-09-23 09:29 51°37.033 2°46.804 5.3 29 16.7 100930 52
2010-09-23 09:30 51°37.224 2°46.929 4.6 27 16.7 100930 52
2010-09-23 09:31 51°37.413 2°47.043 4 37 16.7 100930 53
2010-09-23 09:32 51°37.61 2°47.155 4.8 32 16.7 100940 54
2010-09-23 09:33 51°37.799 2°47.265 4.5 35 16.7 100940 53
2010-09-23 09:34 51°37.995 2°47.373 4.7 35 16.6 100950 52
2010-09-23 09:35 51°38.183 2°47.49 6.7 36 16.6 100940 52
2010-09-23 09:36 51°38.376 2°47.601 5.4 35 16.6 100940 52
2010-09-23 09:37 51°38.562 2°47.719 3.5 31 16.6 100940 53
2010-09-23 09:38 51°38.755 2°47.834 4 26 16.6 100940 54
2010-09-23 09:39 51°38.948 2°47.945 7.3 29 16.6 100940 53
2010-09-23 09:40 51°39.137 2°48.066 5.7 26 16.6 100930 54
2010-09-23 09:41 51°39.327 2°48.177 5.1 22 16.6 100930 52
2010-09-23 09:42 51°39.517 2°48.293 5.7 25 16.5 100920 53
2010-09-23 09:43 51°39.707 2°48.407 6.1 25 16.5 100930 53
2010-09-23 09:44 51°39.894 2°48.532 5.5 31 16.5 100930 53
2010-09-23 09:45 51°40.08 2°48.654 7.3 31 16.5 100930 54
2010-09-23 09:46 51°40.267 2°48.772 5.9 27 16.5 100930 54
2010-09-23 09:47 51°40.459 2°48.889 5.5 29 16.5 100940 51
2010-09-23 09:48 51°40.65 2°49.003 7.3 37 16.6 100940 54
2010-09-23 09:49 51°40.842 2°49.125 5.5 35 16.6 100940 52
2010-09-23 09:50 51°41.031 2°49.242 5.2 23 16.6 100940 52
2010-09-23 09:51 51°41.219 2°49.358 5.5 28 16.6 100930 52
2010-09-23 09:52 51°41.412 2°49.476 5.1 32 16.6 100930 52
2010-09-23 09:53 51°41.601 2°49.577 5 39 16.5 100930 54
2010-09-23 09:54 51°41.807 2°49.563 4.4 35 16.5 100930 53
2010-09-23 09:55 51°41.995 2°49.423 2.5 32 16.6 100930 51
2010-09-23 09:56 51°42.153 2°49.182 7.6 267 16.6 100930 54
2010-09-23 09:57 51°42.274 2°48.888 8.1 261 16.6 100910 52
2010-09-23 09:58 51°42.375 2°48.569 7 260 16.7 100900 52
2010-09-23 09:59 51°42.384 2°48.218 13.2 239 16.7 100870 53
2010-09-23 10:00 51°42.254 2°47.977 13.2 317 16.7 100820 53
2010-09-23 10:01 51°42.068 2°47.87 15.4 321 16.8 100830 53
2010-09-23 10:02 51°41.879 2°47.776 15.4 324 16.8 100840 52
2010-09-23 10:03 51°41.685 2°47.677 14.9 320 16.8 100830 51
2010-09-23 10:04 51°41.499 2°47.57 15.9 321 16.9 100830 51
2010-09-23 10:05 51°41.307 2°47.458 14.9 319 16.9 100820 52
2010-09-23 10:06 51°41.124 2°47.337 17.6 318 16.9 100820 51
2010-09-23 10:07 51°40.936 2°47.212 14.2 317 16.9 100800 52
2010-09-23 10:08 51°40.75 2°47.089 12.5 319 16.9 100810 51
2010-09-23 10:09 51°40.563 2°46.973 13.3 320 17 100800 51
2010-09-23 10:10 51°40.375 2°46.863 13.3 319 17 100790 51
2010-09-23 10:11 51°40.19 2°46.753 15.5 319 17 100800 51
2010-09-23 10:12 51°40 2°46.641 14.8 320 17 100810 51
2010-09-23 10:13 51°39.816 2°46.534 14.8 320 17 100810 52
2010-09-23 10:14 51°39.629 2°46.425 13.3 321 17 100800 52
2010-09-23 10:15 51°39.442 2°46.315 14 321 17 100800 51
2010-09-23 10:16 51°39.255 2°46.205 14.5 319 17 100800 52
2010-09-23 10:17 51°39.065 2°46.094 14.2 321 17 100800 52
2010-09-23 10:18 51°38.878 2°45.983 13.8 320 17 100800 52
2010-09-23 10:19 51°38.691 2°45.875 13.2 321 17 100800 51
2010-09-23 10:20 51°38.506 2°45.77 14.9 321 17 100810 52
2010-09-23 10:21 51°38.317 2°45.66 15.1 322 17 100810 52
2010-09-23 10:22 51°38.134 2°45.554 12.8 323 17.1 100800 52
2010-09-23 10:23 51°37.944 2°45.444 14.5 322 17 100790 52
2010-09-23 10:24 51°37.763 2°45.338 13.1 322 17.1 100810 52
2010-09-23 10:25 51°37.572 2°45.23 13.6 321 17.1 100800 53
2010-09-23 10:26 51°37.391 2°45.124 15.9 320 17.1 100800 53
2010-09-23 10:27 51°37.206 2°45.015 13.8 319 17.1 100790 51
2010-09-23 10:28 51°37.02 2°44.906 15.6 318 17.1 100780 52
2010-09-23 10:29 51°36.84 2°44.8 14.3 321 17.1 100780 52
2010-09-23 10:30 51°36.654 2°44.691 14.3 322 17.1 100780 52
2010-09-23 10:31 51°36.474 2°44.586 14.9 321 17.1 100790 52
2010-09-23 10:32 51°36.291 2°44.478 13.7 321 17.1 100790 53
2010-09-23 10:33 51°36.108 2°44.367 12.3 320 17 100780 52
2010-09-23 10:34 51°35.922 2°44.257 12.9 320 17 100780 52
2010-09-23 10:35 51°35.741 2°44.147 12.4 321 17 100770 52
2010-09-23 10:36 51°35.56 2°44.038 12.8 322 16.9 100780 53
2010-09-23 10:37 51°35.379 2°43.929 11.2 322 16.9 100770 53
2010-09-23 10:38 51°35.201 2°43.822 11.6 321 16.9 100770 53
2010-09-23 10:39 51°35.018 2°43.712 11.3 322 16.9 100770 53
2010-09-23 10:40 51°34.84 2°43.607 11 321 16.9 100760 53
2010-09-23 10:41 51°34.657 2°43.497 10.8 321 16.9 100750 53
2010-09-23 10:42 51°34.48 2°43.391 11.9 321 16.9 100760 53
2010-09-23 10:43 51°34.298 2°43.282 11.4 320 16.9 100750 53
2010-09-23 10:44 51°34.117 2°43.176 10.7 322 17 100740 53
2010-09-23 10:45 51°33.938 2°43.072 11 322 17 100750 53
2010-09-23 10:46 51°33.758 2°42.967 12.5 321 17 100750 52
2010-09-23 10:47 51°33.583 2°42.864 11.4 320 17 100740 52
2010-09-23 10:48 51°33.401 2°42.76 12.6 323 17.1 100740 53
2010-09-23 10:49 51°33.226 2°42.658 12.4 322 17.1 100740 53
2010-09-23 10:50 51°33.045 2°42.554 13 323 17.1 100740 52
2010-09-23 10:51 51°32.871 2°42.455 11.7 325 17.1 100720 52
2010-09-23 10:52 51°32.691 2°42.354 12.9 322 17.1 100730 53
2010-09-23 10:53 51°32.515 2°42.255 11.7 323 17.2 100740 53
2010-09-23 10:54 51°32.334 2°42.153 13 322 17.2 100730 52
2010-09-23 10:55 51°32.158 2°42.055 13.9 321 17.2 100730 52
2010-09-23 10:56 51°31.985 2°41.958 13.3 320 17.2 100740 53
2010-09-23 10:57 51°31.813 2°41.843 11.4 33 17.1 100730 52
2010-09-23 10:58 51°31.766 2°41.578 9.1 243 17.1 100750 53
2010-09-23 10:59 51°31.768 2°41.276 9.4 245 17.1 100750 52
2010-09-23 11:00 51°31.772 2°40.982 9.5 245 17.1 100750 53
2010-09-23 11:01 51°31.778 2°40.679 9.3 247 17.1 100750 53
2010-09-23 11:02 51°31.784 2°40.387 10.2 245 17.1 100750 53
2010-09-23 11:03 51°31.791 2°40.084 9.4 245 17.1 100750 52
2010-09-23 11:04 51°31.807 2°39.788 8.6 257 17.1 100750 52
2010-09-23 11:05 51°31.955 2°39.635 0.1 36 17.1 100760 52
2010-09-23 11:06 51°32.148 2°39.577 0.2 34 17.2 100760 53
2010-09-23 11:07 51°32.34 2°39.532 0.2 35 17.3 100760 53
2010-09-23 11:08 51°32.536 2°39.537 3.8 27 17.3 100760 51
2010-09-23 11:09 51°32.717 2°39.661 5.7 23 17.3 100750 51
2010-09-23 11:10 51°32.891 2°39.837 7.6 11 17.2 100750 51
2010-09-23 11:11 51°33.032 2°40.066 7.8 17 17.2 100740 53
2010-09-23 11:12 51°33.165 2°40.308 6.9 10 17.1 100740 53
2010-09-23 11:13 51°33.295 2°40.543 6.6 16 17.1 100740 52
2010-09-23 11:14 51°33.432 2°40.755 7.9 24 17.1 100750 53
2010-09-23 11:15 51°33.606 2°40.904 5 45 17 100750 51
2010-09-23 11:16 51°33.796 2°40.964 2.9 38 17.1 100760 52
2010-09-23 11:17 51°33.985 2°41.026 4 38 17.1 100760 51
2010-09-23 11:18 51°34.166 2°41.123 5.1 38 17.1 100750 51
2010-09-23 11:19 51°34.351 2°41.251 4.6 34 17.1 100750 52
2010-09-23 11:20 51°34.53 2°41.369 3.8 30 17.1 100750 53
2010-09-23 11:21 51°34.711 2°41.492 5.5 29 17.1 100750 52
2010-09-23 11:22 51°34.898 2°41.619 3.1 34 17 100750 52
2010-09-23 11:23 51°35.081 2°41.74 4.4 36 17 100740 53
2010-09-23 11:24 51°35.267 2°41.715 1.2 38 17 100740 51
2010-09-23 11:25 51°35.453 2°41.631 2.6 267 17.1 100750 51
2010-09-23 11:26 51°35.638 2°41.55 3.4 31 17.1 100740 54
2010-09-23 11:27 51°35.824 2°41.49 2.8 43 17.1 100740 54
2010-09-23 11:28 51°36.019 2°41.57 3 30 17.1 100730 54
2010-09-23 11:29 51°36.206 2°41.669 3.8 32 17.1 100730 52
2010-09-23 11:30 51°36.393 2°41.792 4.5 29 17.1 100730 52
2010-09-23 11:31 51°36.583 2°41.919 4.8 22 17.1 100730 51
2010-09-23 11:32 51°36.765 2°42.038 4.5 39 17.1 100730 52
2010-09-23 11:33 51°36.953 2°42.162 3 35 17 100730 52
2010-09-23 11:34 51°37.136 2°42.276 5.3 27 17 100730 53
2010-09-23 11:35 51°37.317 2°42.426 3.4 25 17.1 100730 52
2010-09-23 11:36 51°37.493 2°42.573 5 39 17.1 100720 53
2010-09-23 11:37 51°37.677 2°42.724 5.7 30 17 100730 51
2010-09-23 11:38 51°37.854 2°42.873 6.4 39 17.1 100720 51
2010-09-23 11:39 51°38.033 2°43.021 6.1 28 17.1 100720 52
2010-09-23 11:40 51°38.217 2°43.172 5.4 28 17.1 100720 51
2010-09-23 11:41 51°38.396 2°43.318 4.2 29 17.1 100720 51
2010-09-23 11:42 51°38.58 2°43.467 4.5 32 17.1 100720 53
2010-09-23 11:43 51°38.763 2°43.613 4.5 32 17.1 100720 53
2010-09-23 11:44 51°38.945 2°43.761 5.1 28 17.1 100720 53
2010-09-23 11:45 51°39.123 2°43.907 4.6 38 17.1 100720 53
2010-09-23 11:46 51°39.309 2°44.057 5 39 17.1 100720 51
2010-09-23 11:47 51°39.489 2°44.205 5.4 37 17.1 100720 50
2010-09-23 11:48 51°39.676 2°44.358 4.4 34 17.1 100720 53
2010-09-23 11:49 51°39.86 2°44.506 4.3 37 17.1 100720 52
2010-09-23 11:50 51°40.04 2°44.65 5 34 17.1 100720 53
2010-09-23 11:51 51°40.226 2°44.802 4.1 31 17.1 100710 52
2010-09-23 11:52 51°40.405 2°44.949 4.4 33 17.1 100720 53
2010-09-23 11:53 51°40.592 2°45.1 4.8 29 17.1 100710 51
2010-09-23 11:54 51°40.775 2°45.238 4.6 30 17.1 100710 51
2010-09-23 11:55 51°40.97 2°45.356 3.5 37 17.1 100710 52
2010-09-23 11:56 51°41.158 2°45.47 3.4 37 17.1 100710 51
2010-09-23 11:57 51°41.349 2°45.59 3.8 39 17.1 100710 51
2010-09-23 11:58 51°41.532 2°45.707 2.8 34 17.1 100720 52
2010-09-23 11:59 51°41.721 2°45.828 3.3 33 17.1 100710 53
2010-09-23 12:00 51°41.908 2°45.947 2.1 43 17.1 100720 53
2010-09-23 12:01 51°42.094 2°46.07 3 37 17.1 100710 51
2010-09-23 12:02 51°42.285 2°46.168 3.3 35 17.1 100710 53
2010-09-23 12:03 51°42.478 2°46.191 4.8 40 17.3 100710 51
2010-09-23 12:04 51°42.626 2°46.036 6.7 257 17.2 100710 51
2010-09-23 12:05 51°42.768 2°45.817 8.2 256 17.2 100710 53
2010-09-23 12:06 51°42.915 2°45.6 6 253 17.2 100710 51
2010-09-23 12:07 51°43.043 2°45.374 8 258 17.2 100700 53
2010-09-23 12:08 51°43.175 2°45.129 8.2 257 17.1 100700 51
2010-09-23 12:09 51°43.306 2°44.885 6.6 255 17.1 100700 51
2010-09-23 12:10 51°43.416 2°44.636 8.4 249 17 100710 52
2010-09-23 12:11 51°43.523 2°44.375 9.8 252 17 100700 52
2010-09-23 12:12 51°43.62 2°44.111 8.1 247 17 100700 51
2010-09-23 12:13 51°43.675 2°43.825 11 245 17 100690 52
2010-09-23 12:14 51°43.664 2°43.55 12.5 38 16.9 100680 53
2010-09-23 12:15 51°43.519 2°43.435 13.7 324 16.9 100650 52
2010-09-23 12:16 51°43.351 2°43.344 14.9 323 17 100650 52
2010-09-23 12:17 51°43.169 2°43.242 14.1 324 17 100650 53
2010-09-23 12:18 51°42.986 2°43.149 15.4 325 17 100660 52
2010-09-23 12:19 51°42.806 2°43.071 14.1 326 17 100670 52
2010-09-23 12:20 51°42.621 2°42.99 15.2 326 17 100680 52
2010-09-23 12:21 51°42.442 2°42.914 13.2 325 17 100690 52
2010-09-23 12:22 51°42.257 2°42.834 12.9 327 17 100680 53
2010-09-23 12:23 51°42.08 2°42.756 12.8 325 16.9 100660 52
2010-09-23 12:24 51°41.898 2°42.663 14.5 324 16.9 100660 52
2010-09-23 12:25 51°41.723 2°42.567 14.5 325 16.9 100650 52
2010-09-23 12:26 51°41.543 2°42.469 13.2 325 16.9 100650 52
2010-09-23 12:27 51°41.365 2°42.372 14.3 324 16.9 100650 52
2010-09-23 12:28 51°41.187 2°42.276 14.4 323 16.9 100650 51
2010-09-23 12:29 51°41.008 2°42.18 13.2 322 16.9 100650 52
2010-09-23 12:30 51°40.827 2°42.083 13.7 323 16.9 100630 51
2010-09-23 12:31 51°40.65 2°41.988 15.1 324 16.9 100630 52
2010-09-23 12:32 51°40.475 2°41.895 13.8 321 16.9 100620 51
2010-09-23 12:33 51°40.299 2°41.803 13.1 322 16.9 100630 51
2010-09-23 12:34 51°40.122 2°41.708 12.6 321 16.9 100630 52
2010-09-23 12:35 51°39.947 2°41.613 13.2 321 16.9 100630 52
2010-09-23 12:36 51°39.774 2°41.52 12.9 322 16.9 100630 52
2010-09-23 12:37 51°39.596 2°41.423 12.4 321 17 100630 52
2010-09-23 12:38 51°39.419 2°41.329 13 320 17 100630 52
2010-09-23 12:39 51°39.248 2°41.241 14.7 320 17 100610 51
2010-09-23 12:40 51°39.073 2°41.142 14.5 322 17 100620 52
2010-09-23 12:41 51°38.904 2°41.046 11.9 323 17 100620 51
2010-09-23 12:42 51°38.728 2°40.947 12.7 321 17 100640 52
2010-09-23 12:43 51°38.558 2°40.854 13 321 17 100620 51
2010-09-23 12:44 51°38.385 2°40.76 13.5 323 17 100620 52
2010-09-23 12:45 51°38.216 2°40.666 13.3 321 17 100630 52
2010-09-23 12:46 51°38.041 2°40.569 14.1 324 17 100640 51
2010-09-23 12:47 51°37.871 2°40.475 12.2 324 17 100630 52
2010-09-23 12:48 51°37.697 2°40.374 12.4 325 17 100640 51
2010-09-23 12:49 51°37.527 2°40.277 13.2 325 17 100640 52
2010-09-23 12:50 51°37.355 2°40.177 14 325 17 100650 52
2010-09-23 12:51 51°37.183 2°40.075 12.6 325 17 100650 51
2010-09-23 12:52 51°37.014 2°39.975 13.4 325 17 100650 52
2010-09-23 12:53 51°36.839 2°39.869 12.9 325 17 100660 52
2010-09-23 12:54 51°36.667 2°39.766 13.2 327 17 100660 52
2010-09-23 12:55 51°36.496 2°39.66 14.4 327 17 100650 52
2010-09-23 12:56 51°36.327 2°39.558 13.4 325 17 100660 52
2010-09-23 12:57 51°36.153 2°39.452 13.4 325 17 100650 52
2010-09-23 12:58 51°35.978 2°39.345 12.4 325 17 100650 52
2010-09-23 12:59 51°35.811 2°39.244 12 326 17 100660 51
2010-09-23 13:00 51°35.637 2°39.139 12.3 326 17.1 100650 52
2010-09-23 13:01 51°35.466 2°39.034 12.2 325 17.1 100650 52
2010-09-23 13:02 51°35.292 2°38.929 12.7 324 17.1 100660 52
2010-09-23 13:03 51°35.124 2°38.826 12.1 325 17.1 100650 51
2010-09-23 13:04 51°34.951 2°38.721 13.5 323 17 100650 52
2010-09-23 13:05 51°34.784 2°38.618 11.6 326 17.1 100640 52
2010-09-23 13:06 51°34.614 2°38.514 12.4 325 17.1 100640 52
2010-09-23 13:07 51°34.439 2°38.432 11.8 325 17.1 100660 51
2010-09-23 13:08 51°34.263 2°38.352 12.1 326 17.1 100650 51
2010-09-23 13:09 51°34.085 2°38.271 11.6 326 17.1 100650 53
2010-09-23 13:10 51°33.913 2°38.192 12.6 325 17.1 100650 52
2010-09-23 13:11 51°33.737 2°38.109 11.9 327 17.1 100640 51
2010-09-23 13:12 51°33.564 2°38.031 12.5 325 17.1 100650 52
2010-09-23 13:13 51°33.39 2°37.951 11.4 327 17.1 100660 51
2010-09-23 13:14 51°33.215 2°37.869 11 329 17.1 100660 52
2010-09-23 13:15 51°33.041 2°37.787 10.6 329 17.1 100650 50
2010-09-23 13:16 51°32.863 2°37.704 10.9 326 17.2 100660 53
2010-09-23 13:17 51°32.691 2°37.625 10.9 325 17.2 100640 52
2010-09-23 13:18 51°32.517 2°37.544 10.4 325 17.2 100630 51
2010-09-23 13:19 51°32.342 2°37.464 11.1 327 17.2 100630 51
2010-09-23 13:20 51°32.166 2°37.383 11 326 17.2 100630 52
2010-09-23 13:21 51°31.991 2°37.301 11.8 326 17.2 100620 52
2010-09-23 13:22 51°31.815 2°37.22 12.3 325 17.3 100630 51
2010-09-23 13:23 51°31.64 2°37.137 12.5 325 17.3 100630 51
2010-09-23 13:24 51°31.465 2°37.056 12.4 327 17.3 100630 52
2010-09-23 13:25 51°31.289 2°36.973 12.2 328 17.3 100620 51
2010-09-23 13:26 51°31.114 2°36.89 12.5 327 17.3 100610 51
2010-09-23 13:27 51°30.939 2°36.808 12.2 327 17.3 100630 51
2010-09-23 13:28 51°30.763 2°36.727 12.7 327 17.3 100620 51
2010-09-23 13:29 51°30.586 2°36.647 12.4 327 17.3 100620 52
2010-09-23 13:30 51°30.409 2°36.566 13.3 328 17.3 100630 51
2010-09-23 13:31 51°30.232 2°36.486 12.9 327 17.3 100620 51
2010-09-23 13:32 51°30.054 2°36.408 12.3 327 17.3 100630 51
2010-09-23 13:33 51°29.877 2°36.329 12.5 328 17.3 100620 51
2010-09-23 13:34 51°29.702 2°36.254 12.6 327 17.3 100620 52
2010-09-23 13:35 51°29.524 2°36.178 11.5 327 17.3 100630 51
2010-09-23 13:36 51°29.348 2°36.105 11.7 329 17.3 100630 52
2010-09-23 13:37 51°29.17 2°36.033 11.7 328 17.3 100620 52
2010-09-23 13:38 51°28.99 2°35.956 12.4 327 17.3 100620 52
2010-09-23 13:39 51°28.814 2°35.885 12.5 327 17.3 100620 51
2010-09-23 13:40 51°28.636 2°35.812 11.4 327 17.3 100610 51
2010-09-23 13:41 51°28.452 2°35.736 12.2 328 17.4 100610 52
2010-09-23 13:42 51°28.286 2°35.848 11 344 17.4 100610 52
2010-09-23 13:43 51°28.144 2°36.094 10.9 344 17.4 100610 51
2010-09-23 13:44 51°28.003 2°36.332 11.5 344 17.4 100610 53
2010-09-23 13:45 51°27.862 2°36.576 11.7 344 17.4 100610 53
2010-09-23 13:46 51°27.726 2°36.811 10.9 344 17.3 100620 52
2010-09-23 13:47 51°27.588 2°37.048 10.8 344 17.3 100620 52
2010-09-23 13:48 51°27.452 2°37.287 11.6 345 17.3 100610 52
2010-09-23 13:49 51°27.318 2°37.529 11.2 344 17.3 100610 52
2010-09-23 13:50 51°27.187 2°37.772 11.2 345 17.4 100610 53
2010-09-23 13:51 51°27.053 2°38.011 10.7 344 17.4 100600 52
2010-09-23 13:52 51°26.92 2°38.254 9.4 342 17.4 100600 51
2010-09-23 13:53 51°26.788 2°38.497 10.9 344 17.4 100600 52
2010-09-23 13:54 51°26.648 2°38.725 11.6 342 17.5 100600 52
2010-09-23 13:55 51°26.507 2°38.951 11.6 342 17.5 100600 50
2010-09-23 13:56 51°26.366 2°39.177 10.8 345 17.5 100600 51
2010-09-23 13:57 51°26.223 2°39.401 11 345 17.5 100600 52
2010-09-23 13:58 51°26.08 2°39.626 9.7 346 17.5 100600 51
2010-09-23 13:59 51°25.937 2°39.851 12.3 342 17.5 100600 51
2010-09-23 14:00 51°25.789 2°40.063 11.9 343 17.6 100600 51
2010-09-23 14:01 51°25.639 2°40.269 11.8 343 17.6 100590 51
2010-09-23 14:02 51°25.489 2°40.472 11.6 342 17.6 100590 52
2010-09-23 14:03 51°25.338 2°40.673 13 343 17.6 100590 51
2010-09-23 14:04 51°25.188 2°40.879 11.4 343 17.6 100600 52
2010-09-23 14:05 51°25.04 2°41.086 12.4 341 17.6 100600 52
2010-09-23 14:06 51°24.894 2°41.3 12 339 17.6 100590 52
2010-09-23 14:07 51°24.748 2°41.51 11.2 341 17.6 100600 52
2010-09-23 14:08 51°24.601 2°41.716 11.9 343 17.6 100600 52
2010-09-23 14:09 51°24.451 2°41.922 10.8 343 17.6 100590 52
2010-09-23 14:10 51°24.3 2°42.126 12.4 343 17.6 100600 51
2010-09-23 14:11 51°24.153 2°42.338 11.5 345 17.7 100590 50
2010-09-23 14:12 51°24.009 2°42.562 10.9 343 17.7 100600 51
2010-09-23 14:13 51°23.864 2°42.785 12 344 17.7 100590 52
2010-09-23 14:14 51°23.716 2°43.004 11.6 344 17.7 100600 52
2010-09-23 14:15 51°23.569 2°43.229 11.7 346 17.7 100590 51
2010-09-23 14:16 51°23.426 2°43.457 11.8 347 17.7 100590 50
2010-09-23 14:17 51°23.299 2°43.72 10.8 349 17.8 100580 51
2010-09-23 14:18 51°23.171 2°43.973 11.2 348 17.8 100580 52
2010-09-23 14:19 51°23.039 2°44.211 10.8 347 17.7 100580 49
2010-09-23 14:20 51°22.909 2°44.448 12.4 345 17.7 100590 50
2010-09-23 14:21 51°22.778 2°44.685 12.3 343 17.7 100590 51
2010-09-23 14:22 51°22.648 2°44.922 11.5 344 17.8 100590 51
2010-09-23 14:23 51°22.517 2°45.157 11.3 344 17.9 100600 51
2010-09-23 14:24 51°22.384 2°45.388 9.8 343 17.8 100600 51
2010-09-23 14:25 51°22.242 2°45.6 10.3 340 17.7 100600 52
2010-09-23 14:26 51°22.096 2°45.803 10.4 341 17.7 100590 52
2010-09-23 14:27 51°21.952 2°46.012 10.4 339 17.7 100590 50
2010-09-23 14:28 51°21.805 2°46.219 10.4 342 17.7 100600 51
2010-09-23 14:29 51°21.657 2°46.43 10.8 339 17.7 100600 52
2010-09-23 14:30 51°21.506 2°46.638 10.9 338 17.7 100600 52
2010-09-23 14:31 51°21.355 2°46.854 9.9 338 17.7 100600 51
2010-09-23 14:32 51°21.202 2°47.07 11.2 338 17.7 100600 52
2010-09-23 14:33 51°21.05 2°47.28 10.3 340 17.6 100600 51
2010-09-23 14:34 51°20.899 2°47.492 10.5 340 17.6 100600 52
2010-09-23 14:35 51°20.747 2°47.697 9.4 341 17.6 100600 51
2010-09-23 14:36 51°20.596 2°47.906 11 339 17.6 100600 51
2010-09-23 14:37 51°20.445 2°48.114 10.5 340 17.6 100600 52
2010-09-23 14:38 51°20.294 2°48.323 10.9 341 17.6 100600 51
2010-09-23 14:39 51°20.143 2°48.533 11 342 17.6 100600 51
2010-09-23 14:40 51°19.994 2°48.745 10.7 341 17.6 100590 52
2010-09-23 14:41 51°19.843 2°48.956 10.5 340 17.7 100600 52
2010-09-23 14:42 51°19.695 2°49.164 10.9 341 17.7 100600 51
2010-09-23 14:43 51°19.544 2°49.373 11.2 343 17.7 100610 50
2010-09-23 14:44 51°19.392 2°49.576 11.1 342 17.7 100600 52
2010-09-23 14:45 51°19.241 2°49.778 10.7 344 17.7 100610 51
2010-09-23 14:46 51°19.088 2°49.978 10.8 345 17.8 100610 52
2010-09-23 14:47 51°18.936 2°50.182 11.5 343 17.8 100600 50
2010-09-23 14:48 51°18.785 2°50.387 12.3 344 17.9 100600 50
2010-09-23 14:49 51°18.636 2°50.591 12.3 345 17.9 100600 51
2010-09-23 14:50 51°18.485 2°50.794 10 343 17.9 100600 50
2010-09-23 14:51 51°18.335 2°51 10.7 344 17.9 100600 51
2010-09-23 14:52 51°18.184 2°51.208 11 344 18 100610 51
2010-09-23 14:53 51°18.038 2°51.408 10 344 18 100600 51
2010-09-23 14:54 51°17.889 2°51.61 10.6 342 18 100610 50
2010-09-23 14:55 51°17.733 2°51.794 10.8 343 18 100610 51
2010-09-23 14:56 51°17.574 2°51.973 10.6 344 18 100610 50
2010-09-23 14:57 51°17.412 2°52.148 10.8 343 18 100610 51
2010-09-23 14:58 51°17.249 2°52.316 10.6 342 18 100610 50
2010-09-23 14:59 51°17.082 2°52.472 10.7 343 18 100610 50
2010-09-23 15:00 51°16.913 2°52.618 10.1 341 18 100610 51
2010-09-23 15:01 51°16.742 2°52.764 9.8 342 18.1 100610 51
2010-09-23 15:02 51°16.573 2°52.91 10.4 342 18 100610 51
2010-09-23 15:03 51°16.396 2°53.057 11.2 342 18.1 100620 50
2010-09-23 15:04 51°16.225 2°53.203 10.3 343 18.1 100620 51
2010-09-23 15:05 51°16.045 2°53.338 10.5 342 18.1 100620 51
2010-09-23 15:06 51°15.868 2°53.476 10.7 345 18.1 100620 50
2010-09-23 15:07 51°15.701 2°53.645 9.6 346 18.1 100620 50
2010-09-23 15:08 51°15.538 2°53.83 9.7 345 18.1 100620 50
2010-09-23 15:09 51°15.375 2°54.012 9.5 344 18.1 100610 50
2010-09-23 15:10 51°15.214 2°54.199 8.9 346 18.2 100610 51
2010-09-23 15:11 51°15.056 2°54.39 9.3 345 18.2 100620 50
2010-09-23 15:12 51°14.901 2°54.583 9.4 346 18.2 100610 49
2010-09-23 15:13 51°14.737 2°54.772 10.2 348 18.3 100610 50
2010-09-23 15:14 51°14.577 2°54.945 8.5 344 18.3 100610 50
2010-09-23 15:15 51°14.409 2°55.124 8.7 343 18.4 100600 49
2010-09-23 15:16 51°14.253 2°55.294 5.5 340 18.5 100620 50
2010-09-23 15:17 51°14.12 2°55.414 6.7 338 18.6 100620 49
2010-09-23 15:18 51°14.003 2°55.5 5.8 344 18.6 100620 50
2010-09-23 15:19 51°13.904 2°55.573 3.4 336 18.6 100620 50
2010-09-23 15:20 51°13.812 2°55.644 4.2 343 18.6 100620 50
2010-09-23 15:21 51°13.742 2°55.748 5.2 351 18.6 100610 50
2010-09-23 15:22 51°13.691 2°55.851 3.4 337 18.5 100620 51
2010-09-23 15:23 51°13.668 2°55.941 2.7 347 18.5 100610 50